createdAt,value
2022-11-01T00:02:01.626Z,13.33
2022-11-01T00:04:29.299Z,13.20
2022-11-01T00:06:56.980Z,13.07
2022-11-01T00:09:24.685Z,13.02
2022-11-01T00:11:54.393Z,12.99
2022-11-01T00:14:22.169Z,12.89
2022-11-01T00:16:51.164Z,12.94
2022-11-01T00:19:19.478Z,13.00
2022-11-01T00:21:47.493Z,13.00
2022-11-01T00:24:15.138Z,12.98
2022-11-01T00:26:43.235Z,12.93
2022-11-01T00:29:12.755Z,12.86
2022-11-01T00:31:40.748Z,12.77
2022-11-01T00:34:08.391Z,12.51
2022-11-01T00:36:37.542Z,12.39
2022-11-01T00:39:05.609Z,12.21
2022-11-01T00:41:33.968Z,12.09
2022-11-01T00:44:01.929Z,11.98
2022-11-01T00:46:31.903Z,11.81
2022-11-01T00:48:59.960Z,11.51
2022-11-01T00:51:28.708Z,11.41
2022-11-01T00:53:56.351Z,11.30
2022-11-01T00:56:24.334Z,11.21
2022-11-01T00:58:51.982Z,11.13
2022-11-01T01:01:20.188Z,11.18
2022-11-01T01:03:49.274Z,10.91
2022-11-01T01:06:17.588Z,10.85
2022-11-01T01:08:45.226Z,10.81
2022-11-01T01:11:13.114Z,10.81
2022-11-01T01:13:40.768Z,10.73
2022-11-01T01:16:10.712Z,10.51
2022-11-01T01:18:38.772Z,10.50
2022-11-01T01:21:08.349Z,10.70
2022-11-01T01:23:37.111Z,10.89
2022-11-01T01:26:08.140Z,10.90
2022-11-01T01:28:40.246Z,10.88
2022-11-01T01:31:13.475Z,10.89
2022-11-01T01:33:41.137Z,10.89
2022-11-01T01:36:10.996Z,10.88
2022-11-01T01:38:38.652Z,10.85
2022-11-01T01:41:25.304Z,10.83
2022-11-01T01:43:52.976Z,10.81
2022-11-01T01:46:21.597Z,10.91
2022-11-01T01:48:53.423Z,10.96
2022-11-01T01:51:26.310Z,10.96
2022-11-01T01:53:56.123Z,11.01
2022-11-01T01:56:31.446Z,10.93
2022-11-01T01:59:03.408Z,10.72
2022-11-01T02:01:33.014Z,10.62
2022-11-01T02:04:01.824Z,10.52
2022-11-01T02:06:34.707Z,10.42
2022-11-01T02:09:04.949Z,10.37
2022-11-01T02:11:33.538Z,10.37
2022-11-01T02:14:02.417Z,10.43
2022-11-01T02:16:45.389Z,10.43
2022-11-01T02:19:35.785Z,10.50
2022-11-01T02:22:10.732Z,10.61
2022-11-01T02:25:10.717Z,10.73
2022-11-01T02:27:54.828Z,10.86
2022-11-01T02:30:23.882Z,10.94
2022-11-01T02:33:07.416Z,10.81
2022-11-01T02:35:44.388Z,10.75
2022-11-01T02:38:19.799Z,10.66
2022-11-01T02:40:55.987Z,10.65
2022-11-01T02:43:32.078Z,10.64
2022-11-01T02:46:23.562Z,10.63
2022-11-01T02:48:54.810Z,10.82
2022-11-01T02:51:24.595Z,10.94
2022-11-01T02:53:52.983Z,11.08
2022-11-01T02:56:22.640Z,11.13
2022-11-01T02:58:52.999Z,11.11
2022-11-01T03:01:26.155Z,11.24
2022-11-01T03:03:58.124Z,11.38
2022-11-01T03:06:31.171Z,11.57
2022-11-01T03:09:02.695Z,11.52
2022-11-01T03:11:37.238Z,11.47
2022-11-01T03:14:16.631Z,11.51
2022-11-01T03:16:52.772Z,11.30
2022-11-01T03:19:33.691Z,10.82
2022-11-01T03:22:08.073Z,10.63
2022-11-01T03:24:41.351Z,10.60
2022-11-01T03:27:15.931Z,10.50
2022-11-01T03:29:48.409Z,10.52
2022-11-01T03:32:19.035Z,10.42
2022-11-01T03:34:48.341Z,10.29
2022-11-01T03:37:16.771Z,10.33
2022-11-01T03:39:48.885Z,10.31
2022-11-01T03:42:20.368Z,10.36
2022-11-01T03:44:51.343Z,10.52
2022-11-01T03:47:19.703Z,10.85
2022-11-01T03:49:48.736Z,11.21
2022-11-01T03:52:17.033Z,11.57
2022-11-01T03:54:44.689Z,11.81
2022-11-01T03:57:12.665Z,12.00
2022-11-01T03:59:40.527Z,12.11
2022-11-01T04:04:41.111Z,12.03
2022-11-01T04:07:10.169Z,11.87
2022-11-01T04:09:37.809Z,11.66
2022-11-01T04:12:06.421Z,11.37
2022-11-01T04:15:06.370Z,11.23
2022-11-01T04:17:51.689Z,11.41
2022-11-01T04:20:34.765Z,11.64
2022-11-01T04:23:06.685Z,11.87
2022-11-01T04:25:35.653Z,12.05
2022-11-01T04:28:04.897Z,12.26
2022-11-01T04:30:32.584Z,12.42
2022-11-01T04:33:00.698Z,12.57
2022-11-01T04:35:28.469Z,12.31
2022-11-01T04:38:00.223Z,12.01
2022-11-01T04:40:29.603Z,11.56
2022-11-01T04:42:57.265Z,11.28
2022-11-01T04:45:24.921Z,11.19
2022-11-01T04:48:02.539Z,11.10
2022-11-01T04:50:30.578Z,11.03
2022-11-01T04:52:59.841Z,10.96
2022-11-01T04:55:29.237Z,11.19
2022-11-01T04:57:57.454Z,11.53
2022-11-01T05:00:25.855Z,11.86
2022-11-01T05:03:01.144Z,12.15
2022-11-01T05:05:29.275Z,12.37
2022-11-01T05:10:36.688Z,12.76
2022-11-01T05:13:05.617Z,12.85
2022-11-01T05:15:36.873Z,12.70
2022-11-01T05:18:08.256Z,12.73
2022-11-01T05:20:35.994Z,12.52
2022-11-01T05:23:06.139Z,12.24
2022-11-01T05:25:38.011Z,12.11
2022-11-01T05:28:09.052Z,11.94
2022-11-01T05:30:38.020Z,11.76
2022-11-01T05:33:07.644Z,11.63
2022-11-01T05:35:36.844Z,11.59
2022-11-01T05:38:05.642Z,11.64
2022-11-01T05:40:35.189Z,11.69
2022-11-01T05:43:03.543Z,11.74
2022-11-01T05:45:31.576Z,11.81
2022-11-01T05:48:03.694Z,11.89
2022-11-01T05:50:31.685Z,12.06
2022-11-01T05:53:08.577Z,12.23
2022-11-01T05:55:38.901Z,12.40
2022-11-01T05:58:08.033Z,12.49
2022-11-01T06:00:36.070Z,12.64
2022-11-01T06:03:04.489Z,12.75
2022-11-01T06:05:32.658Z,12.81
2022-11-01T06:08:02.354Z,12.89
2022-11-01T06:10:30.110Z,12.97
2022-11-01T06:12:59.395Z,13.02
2022-11-01T06:15:27.239Z,13.13
2022-11-01T06:17:56.623Z,13.21
2022-11-01T06:20:24.432Z,13.26
2022-11-01T06:22:52.283Z,13.23
2022-11-01T06:25:20.498Z,13.21
2022-11-01T06:27:48.617Z,13.33
2022-11-01T06:30:18.091Z,13.36
2022-11-01T06:32:46.350Z,13.46
2022-11-01T06:35:14.398Z,13.53
2022-11-01T06:37:42.190Z,13.61
2022-11-01T06:40:12.941Z,13.49
2022-11-01T06:42:45.491Z,13.50
2022-11-01T06:45:14.648Z,13.48
2022-11-01T06:47:48.436Z,13.48
2022-11-01T06:50:16.288Z,13.47
2022-11-01T06:52:44.179Z,13.53
2022-11-01T06:55:12.129Z,13.55
2022-11-01T06:57:40.101Z,13.58
2022-11-01T07:00:09.272Z,13.58
2022-11-01T07:02:37.701Z,13.61
2022-11-01T07:05:07.887Z,13.56
2022-11-01T07:07:35.553Z,13.53
2022-11-01T07:10:03.216Z,13.47
2022-11-01T07:12:31.161Z,13.51
2022-11-01T07:14:58.797Z,13.55
2022-11-01T07:17:27.476Z,13.60
2022-11-01T07:19:55.195Z,13.69
2022-11-01T07:22:24.775Z,13.82
2022-11-01T07:24:52.429Z,13.98
2022-11-01T07:27:20.815Z,14.13
2022-11-01T07:29:48.562Z,14.18
2022-11-01T07:32:17.114Z,14.15
2022-11-01T07:34:44.857Z,14.12
2022-11-01T07:37:12.791Z,14.19
2022-11-01T07:39:41.774Z,14.32
2022-11-01T07:42:09.741Z,14.42
2022-11-01T07:44:37.823Z,14.60
2022-11-01T07:47:05.842Z,14.79
2022-11-01T07:49:33.496Z,14.99
2022-11-01T07:52:02.939Z,15.07
2022-11-01T07:54:30.795Z,15.21
2022-11-01T07:56:59.775Z,15.26
2022-11-01T07:59:27.493Z,15.45
2022-11-01T08:01:55.218Z,15.44
2022-11-01T08:04:23.279Z,15.80
2022-11-01T08:06:52.267Z,15.96
2022-11-01T08:09:21.901Z,16.24
2022-11-01T08:11:49.815Z,16.49
2022-11-01T08:14:19.212Z,16.64
2022-11-01T08:16:49.609Z,16.62
2022-11-01T08:19:17.589Z,16.61
2022-11-01T08:21:45.562Z,16.63
2022-11-01T08:24:13.741Z,16.69
2022-11-01T08:26:41.371Z,16.52
2022-11-01T08:29:09.055Z,16.48
2022-11-01T08:31:41.426Z,16.35
2022-11-01T08:34:13.051Z,16.25
2022-11-01T08:36:43.753Z,16.25
2022-11-01T08:39:12.043Z,16.27
2022-11-01T08:41:39.689Z,16.28
2022-11-01T08:44:07.327Z,16.29
2022-11-01T08:46:34.980Z,16.36
2022-11-01T08:49:04.477Z,16.40
2022-11-01T08:51:32.679Z,16.44
2022-11-01T08:54:00.326Z,16.39
2022-11-01T08:56:28.325Z,16.46
2022-11-01T08:58:57.373Z,16.47
2022-11-01T09:01:27.123Z,16.48
2022-11-01T09:03:56.942Z,16.50
2022-11-01T09:06:28.975Z,16.53
2022-11-01T09:08:58.871Z,16.51
2022-11-01T09:11:26.930Z,16.46
2022-11-01T09:13:54.828Z,16.43
2022-11-01T09:16:22.487Z,16.44
2022-11-01T09:18:51.139Z,16.41
2022-11-01T09:21:19.117Z,16.62
2022-11-01T09:23:48.703Z,16.60
2022-11-01T09:26:16.375Z,16.71
2022-11-01T09:28:44.278Z,16.59
2022-11-01T09:31:20.807Z,16.72
2022-11-01T09:33:49.349Z,16.65
2022-11-01T09:36:17.202Z,16.65
2022-11-01T09:38:44.857Z,16.77
2022-11-01T09:41:25.502Z,16.71
2022-11-01T09:43:56.367Z,16.63
2022-11-01T09:46:27.023Z,16.65
2022-11-01T09:48:56.579Z,16.58
2022-11-01T09:51:25.934Z,16.54
2022-11-01T09:53:55.837Z,16.49
2022-11-01T09:56:30.643Z,16.41
2022-11-01T09:59:06.991Z,16.34
2022-11-01T10:01:43.119Z,16.45
2022-11-01T10:04:30.240Z,16.60
2022-11-01T10:07:03.569Z,16.78
2022-11-01T10:09:38.377Z,16.89
2022-11-01T10:12:24.435Z,16.91
2022-11-01T10:15:04.766Z,17.02
2022-11-01T10:17:52.705Z,17.10
2022-11-01T10:20:24.701Z,17.24
2022-11-01T10:22:53.229Z,17.21
2022-11-01T10:25:23.085Z,17.26
2022-11-01T10:28:04.635Z,17.51
2022-11-01T10:30:39.933Z,17.48
2022-11-01T10:33:23.869Z,17.75
2022-11-01T10:35:55.389Z,17.72
2022-11-01T10:39:10.289Z,17.87
2022-11-01T10:41:31.069Z,17.76
2022-11-01T10:44:05.394Z,17.81
2022-11-01T10:46:40.165Z,17.97
2022-11-01T10:49:22.367Z,17.66
2022-11-01T10:51:55.777Z,17.67
2022-11-01T10:54:27.304Z,17.56
2022-11-01T10:57:00.960Z,17.61
2022-11-01T10:59:36.258Z,18.17
2022-11-01T11:02:16.604Z,17.84
2022-11-01T11:04:44.386Z,18.07
2022-11-01T11:07:15.673Z,18.12
2022-11-01T11:09:48.018Z,18.17
2022-11-01T11:12:19.246Z,17.93
2022-11-01T11:14:53.683Z,17.89
2022-11-01T11:17:24.961Z,17.55
2022-11-01T11:19:53.811Z,17.19
2022-11-01T11:22:23.421Z,17.59
2022-11-01T11:24:52.784Z,17.64
2022-11-01T11:27:24.537Z,17.85
2022-11-01T11:29:56.128Z,17.47
2022-11-01T11:32:26.889Z,17.46
2022-11-01T11:34:57.146Z,17.24
2022-11-01T11:37:27.205Z,17.55
2022-11-01T11:40:20.633Z,17.85
2022-11-01T11:42:50.447Z,17.93
2022-11-01T11:45:29.170Z,17.81
2022-11-01T11:47:58.830Z,17.88
2022-11-01T11:50:35.059Z,17.76
2022-11-01T11:53:08.578Z,18.23
2022-11-01T11:55:40.347Z,17.93
2022-11-01T11:58:22.996Z,17.95
2022-11-01T12:00:55.511Z,18.22
2022-11-01T12:03:24.101Z,18.40
2022-11-01T12:05:55.215Z,18.38
2022-11-01T12:08:37.483Z,18.65
2022-11-01T12:11:06.415Z,18.50
2022-11-01T12:13:37.859Z,18.63
2022-11-01T12:16:22.224Z,18.72
2022-11-01T12:18:56.410Z,18.77
2022-11-01T12:21:30.203Z,18.41
2022-11-01T12:24:04.081Z,18.69
2022-11-01T12:26:35.713Z,18.66
2022-11-01T12:29:17.619Z,18.40
2022-11-01T12:31:49.384Z,18.16
2022-11-01T12:34:22.795Z,18.36
2022-11-01T12:36:58.472Z,18.02
2022-11-01T12:39:40.418Z,17.72
2022-11-01T12:42:12.961Z,17.71
2022-11-01T12:44:44.656Z,17.56
2022-11-01T12:47:19.343Z,18.11
2022-11-01T12:49:52.749Z,18.27
2022-11-01T12:52:28.388Z,18.36
2022-11-01T12:55:05.130Z,18.50
2022-11-01T12:57:34.833Z,18.48
2022-11-01T13:00:04.161Z,18.52
2022-11-01T13:02:47.888Z,18.57
2022-11-01T13:05:20.981Z,18.64
2022-11-01T13:08:02.820Z,18.64
2022-11-01T13:10:34.302Z,18.69
2022-11-01T13:13:15.576Z,18.64
2022-11-01T13:15:57.063Z,18.69
2022-11-01T13:18:35.024Z,18.55
2022-11-01T13:21:10.244Z,18.60
2022-11-01T13:23:39.686Z,18.41
2022-11-01T13:26:15.730Z,18.50
2022-11-01T13:28:55.268Z,18.39
2022-11-01T13:31:37.195Z,18.34
2022-11-01T13:34:18.518Z,18.38
2022-11-01T13:36:51.393Z,18.38
2022-11-01T13:39:27.846Z,18.45
2022-11-01T13:42:03.035Z,18.44
2022-11-01T13:44:35.640Z,18.50
2022-11-01T13:47:18.973Z,18.32
2022-11-01T13:50:19.237Z,18.15
2022-11-01T13:52:54.627Z,18.20
2022-11-01T13:55:26.711Z,18.24
2022-11-01T13:57:55.527Z,18.18
2022-11-01T14:00:42.589Z,18.09
2022-11-01T14:03:26.080Z,18.28
2022-11-01T14:09:30.029Z,18.28
2022-11-01T14:11:59.079Z,18.16
2022-11-01T14:14:52.027Z,18.03
2022-11-01T14:17:55.077Z,17.75
2022-11-01T14:20:53.641Z,18.02
2022-11-01T14:23:48.912Z,18.03
2022-11-01T14:26:58.853Z,17.97
2022-11-01T14:29:28.067Z,17.99
2022-11-01T14:31:57.925Z,17.99
2022-11-01T14:34:29.199Z,17.78
2022-11-01T14:37:01.829Z,17.76
2022-11-01T14:39:37.297Z,17.70
2022-11-01T14:42:10.637Z,17.62
2022-11-01T14:44:46.819Z,17.63
2022-11-01T14:47:28.476Z,17.54
2022-11-01T14:50:00.128Z,17.52
2022-11-01T14:52:35.440Z,17.37
2022-11-01T14:55:07.998Z,17.43
2022-11-01T14:57:36.300Z,17.39
2022-11-01T15:00:26.557Z,17.32
2022-11-01T15:02:54.642Z,17.20
2022-11-01T15:05:22.536Z,17.18
2022-11-01T15:07:52.316Z,17.15
2022-11-01T15:10:21.027Z,17.22
2022-11-01T15:12:52.461Z,17.12
2022-11-01T15:15:24.291Z,17.17
2022-11-01T15:17:56.425Z,17.18
2022-11-01T15:20:27.306Z,17.15
2022-11-01T15:22:57.025Z,17.13
2022-11-01T15:25:27.505Z,17.13
2022-11-01T15:27:57.436Z,17.11
2022-11-01T15:30:28.666Z,17.06
2022-11-01T15:33:15.313Z,16.91
2022-11-01T15:35:43.622Z,16.87
2022-11-01T15:38:20.888Z,16.92
2022-11-01T15:40:50.208Z,16.85
2022-11-01T15:43:20.095Z,16.69
2022-11-01T15:45:53.632Z,16.66
2022-11-01T15:48:25.704Z,16.66
2022-11-01T15:50:58.113Z,16.67
2022-11-01T15:53:29.179Z,16.65
2022-11-01T15:56:01.452Z,16.65
2022-11-01T15:58:33.979Z,16.67
2022-11-01T16:01:13.120Z,16.74
2022-11-01T16:03:45.965Z,16.78
2022-11-01T16:06:18.900Z,16.82
2022-11-01T16:08:52.090Z,16.73
2022-11-01T16:11:22.541Z,16.67
2022-11-01T16:13:53.261Z,16.59
2022-11-01T16:16:22.285Z,16.59
2022-11-01T16:18:50.007Z,16.60
2022-11-01T16:21:27.709Z,16.60
2022-11-01T16:24:05.339Z,16.62
2022-11-01T16:26:53.205Z,16.61
2022-11-01T16:29:39.106Z,16.54
2022-11-01T16:32:10.123Z,16.48
2022-11-01T16:34:38.333Z,16.50
2022-11-01T16:37:19.377Z,16.50
2022-11-01T16:39:48.029Z,16.45
2022-11-01T16:42:17.226Z,16.48
2022-11-01T16:44:45.787Z,16.47
2022-11-01T16:47:16.838Z,16.46
2022-11-01T16:49:49.185Z,16.44
2022-11-01T16:52:17.143Z,16.36
2022-11-01T16:54:45.818Z,16.34
2022-11-01T16:57:20.273Z,16.37
2022-11-01T16:59:47.983Z,16.37
2022-11-01T17:02:19.799Z,16.33
2022-11-01T17:04:50.842Z,16.31
2022-11-01T17:07:19.204Z,16.34
2022-11-01T17:09:47.496Z,16.34
2022-11-01T17:12:15.512Z,16.32
2022-11-01T17:14:43.500Z,16.30
2022-11-01T17:17:15.715Z,16.25
2022-11-01T17:19:49.619Z,16.27
2022-11-01T17:22:20.587Z,16.27
2022-11-01T17:24:48.948Z,16.15
2022-11-01T17:27:18.527Z,16.01
2022-11-01T17:29:46.538Z,15.94
2022-11-01T17:32:14.259Z,15.83
2022-11-01T17:34:42.604Z,15.77
2022-11-01T17:37:16.971Z,15.75
2022-11-01T17:39:45.081Z,15.52
2022-11-01T17:42:12.724Z,15.34
2022-11-01T17:44:41.113Z,14.95
2022-11-01T17:47:09.901Z,14.70
2022-11-01T17:49:38.157Z,14.68
2022-11-01T17:52:06.040Z,14.59
2022-11-01T17:54:35.089Z,14.43
2022-11-01T17:57:02.745Z,14.29
2022-11-01T17:59:31.157Z,14.11
2022-11-01T18:01:59.019Z,14.13
2022-11-01T18:04:26.737Z,14.06
2022-11-01T18:06:54.386Z,14.12
2022-11-01T18:09:25.093Z,14.21
2022-11-01T18:12:03.713Z,14.37
2022-11-01T18:14:47.130Z,14.50
2022-11-01T18:17:27.821Z,14.50
2022-11-01T18:20:02.296Z,14.54
2022-11-01T18:22:40.883Z,14.58
2022-11-01T18:25:24.719Z,14.59
2022-11-01T18:27:55.996Z,14.62
2022-11-01T18:30:24.519Z,14.68
2022-11-01T18:32:56.444Z,14.63
2022-11-01T18:35:32.227Z,14.59
2022-11-01T18:38:17.897Z,14.62
2022-11-01T18:41:12.066Z,14.58
2022-11-01T18:43:43.091Z,14.48
2022-11-01T18:46:25.835Z,14.40
2022-11-01T18:48:59.603Z,14.33
2022-11-01T18:51:31.548Z,14.32
2022-11-01T18:54:13.264Z,14.28
2022-11-01T18:56:44.575Z,14.15
2022-11-01T18:59:15.757Z,14.01
2022-11-01T19:01:44.055Z,13.74
2022-11-01T19:04:19.861Z,13.55
2022-11-01T19:06:47.698Z,13.35
2022-11-01T19:09:22.961Z,13.20
2022-11-01T19:11:58.120Z,13.02
2022-11-01T19:14:28.360Z,12.98
2022-11-01T19:16:57.355Z,12.94
2022-11-01T19:19:25.299Z,12.90
2022-11-01T19:21:57.668Z,12.88
2022-11-01T19:24:33.000Z,12.76
2022-11-01T19:27:02.073Z,12.66
2022-11-01T19:29:34.914Z,12.64
2022-11-01T19:32:05.184Z,12.67
2022-11-01T19:34:36.758Z,12.77
2022-11-01T19:37:08.392Z,12.92
2022-11-01T19:39:40.484Z,13.01
2022-11-01T19:42:20.604Z,13.05
2022-11-01T19:44:49.645Z,13.06
2022-11-01T19:47:31.664Z,12.91
2022-11-01T19:49:59.469Z,12.72
2022-11-01T19:52:35.591Z,12.61
2022-11-01T19:55:03.854Z,12.52
2022-11-01T19:57:34.003Z,12.45
2022-11-01T20:00:18.925Z,12.35
2022-11-01T20:02:47.450Z,12.28
2022-11-01T20:05:27.347Z,12.27
2022-11-01T20:08:06.627Z,12.24
2022-11-01T20:10:34.309Z,12.29
2022-11-01T20:13:02.797Z,12.33
2022-11-01T20:15:32.100Z,12.44
2022-11-01T20:18:00.210Z,12.48
2022-11-01T20:20:27.883Z,12.50
2022-11-01T20:23:20.345Z,12.51
2022-11-01T20:25:43.622Z,12.50
2022-11-01T20:28:11.545Z,12.51
2022-11-01T20:30:40.551Z,12.52
2022-11-01T20:33:08.345Z,12.59
2022-11-01T20:35:36.117Z,12.57
2022-11-01T20:38:04.601Z,12.49
2022-11-01T20:40:32.366Z,12.47
2022-11-01T20:43:00.414Z,12.41
2022-11-01T20:45:28.265Z,12.35
2022-11-01T20:47:57.268Z,12.33
2022-11-01T20:50:25.014Z,12.33
2022-11-01T20:52:53.478Z,12.33
2022-11-01T20:55:21.121Z,12.39
2022-11-01T20:57:48.792Z,12.38
2022-11-01T21:00:18.475Z,12.32
2022-11-01T21:02:46.713Z,12.28
2022-11-01T21:05:23.764Z,12.18
2022-11-01T21:07:55.145Z,12.16
2022-11-01T21:10:27.695Z,12.08
2022-11-01T21:12:55.741Z,12.07
2022-11-01T21:15:38.210Z,12.08
2022-11-01T21:18:38.052Z,12.06
2022-11-01T21:21:46.630Z,12.03
2022-11-01T21:24:29.897Z,12.02
2022-11-01T21:27:18.009Z,11.92
2022-11-01T21:29:48.525Z,11.74
2022-11-01T21:32:27.010Z,11.50
2022-11-01T21:34:54.957Z,11.34
2022-11-01T21:37:23.746Z,11.20
2022-11-01T21:40:00.266Z,11.05
2022-11-01T21:42:33.596Z,10.97
2022-11-01T21:45:02.921Z,10.86
2022-11-01T21:47:33.593Z,10.83
2022-11-01T21:50:01.251Z,10.77
2022-11-01T21:52:29.453Z,10.71
2022-11-01T21:54:58.454Z,10.69
2022-11-01T21:57:26.095Z,10.68
2022-11-01T21:59:53.887Z,10.69
2022-11-01T22:02:21.969Z,10.74
2022-11-01T22:04:49.668Z,10.80
2022-11-01T22:07:17.993Z,10.86
2022-11-01T22:09:45.651Z,10.92
2022-11-01T22:12:14.959Z,11.02
2022-11-01T22:14:42.667Z,11.09
2022-11-01T22:17:10.998Z,11.21
2022-11-01T22:19:38.684Z,11.27
2022-11-01T22:22:06.824Z,11.26
2022-11-01T22:24:34.501Z,10.92
2022-11-01T22:27:03.410Z,10.64
2022-11-01T22:29:32.412Z,10.64
2022-11-01T22:32:00.708Z,10.33
2022-11-01T22:34:28.360Z,10.17
2022-11-01T22:36:56.532Z,9.91
2022-11-01T22:39:26.877Z,9.92
2022-11-01T22:41:55.788Z,9.98
2022-11-01T22:44:27.584Z,10.04
2022-11-01T22:46:59.617Z,10.07
2022-11-01T22:49:30.081Z,10.07
2022-11-01T22:52:03.208Z,10.09
2022-11-01T22:54:35.458Z,10.08
2022-11-01T22:57:13.293Z,10.01
2022-11-01T22:59:45.334Z,9.98
2022-11-01T23:02:30.469Z,9.84
2022-11-01T23:05:21.104Z,9.79
2022-11-01T23:07:51.249Z,9.86
2022-11-01T23:10:25.280Z,9.73
2022-11-01T23:13:16.307Z,9.72
2022-11-01T23:15:44.512Z,9.61
2022-11-01T23:18:23.292Z,9.61
2022-11-01T23:20:56.166Z,9.52
2022-11-01T23:23:24.456Z,9.26
2022-11-01T23:25:53.744Z,9.22
2022-11-01T23:28:22.944Z,9.00
2022-11-01T23:30:51.658Z,8.93
2022-11-01T23:33:23.366Z,8.92
2022-11-01T23:35:54.709Z,8.89
2022-11-01T23:38:29.735Z,8.97
2022-11-01T23:40:58.463Z,9.00
2022-11-01T23:43:32.784Z,9.02
2022-11-01T23:46:01.496Z,9.08
2022-11-01T23:48:30.999Z,8.99
2022-11-01T23:50:59.171Z,9.04
2022-11-01T23:53:33.629Z,9.13
2022-11-01T23:56:02.676Z,9.15
2022-11-01T23:58:32.644Z,9.08
